createdAt,value
2018-12-08T00:04:58.911Z,0
2018-12-08T00:09:58.295Z,0
2018-12-08T00:14:58.598Z,0
2018-12-08T00:19:58.839Z,0
2018-12-08T00:24:58.573Z,0
2018-12-08T00:29:58.672Z,0
2018-12-08T00:34:58.717Z,0
2018-12-08T00:39:58.469Z,0
2018-12-08T00:44:58.202Z,0
2018-12-08T00:49:58.688Z,0
2018-12-08T00:54:58.116Z,0
2018-12-08T00:59:59.176Z,0
2018-12-08T01:05:01.244Z,0
2018-12-08T01:09:58.356Z,0
2018-12-08T01:14:58.184Z,0
2018-12-08T01:19:59.457Z,0
2018-12-08T01:24:58.151Z,0
2018-12-08T01:29:58.709Z,0
2018-12-08T01:35:03.557Z,0
2018-12-08T01:39:58.382Z,0
2018-12-08T01:44:59.152Z,0
2018-12-08T01:49:58.786Z,0
2018-12-08T01:54:58.612Z,0
2018-12-08T02:00:01.068Z,0
2018-12-08T02:04:58.198Z,0
2018-12-08T02:09:58.747Z,0
2018-12-08T02:14:58.577Z,0
2018-12-08T02:19:58.990Z,0
2018-12-08T02:24:59.021Z,0
2018-12-08T02:29:58.432Z,0
2018-12-08T02:34:58.591Z,0
2018-12-08T02:39:58.410Z,0
2018-12-08T02:44:59.090Z,0
2018-12-08T02:49:58.205Z,0
2018-12-08T02:54:58.257Z,0
2018-12-08T02:59:58.204Z,0
2018-12-08T03:04:58.478Z,0
2018-12-08T03:09:58.185Z,0
2018-12-08T03:14:57.864Z,0
2018-12-08T03:19:58.483Z,0
2018-12-08T03:24:57.936Z,0
2018-12-08T03:29:59.125Z,0
2018-12-08T03:34:58.925Z,0
2018-12-08T03:39:58.002Z,0
2018-12-08T03:44:58.164Z,0
2018-12-08T03:49:58.279Z,0
2018-12-08T03:54:58.260Z,0
2018-12-08T03:59:59.028Z,0
2018-12-08T04:04:58.304Z,0
2018-12-08T04:09:59.738Z,0
2018-12-08T04:14:58.283Z,0
2018-12-08T04:19:58.739Z,0
2018-12-08T04:24:58.025Z,0
2018-12-08T04:30:02.006Z,0
2018-12-08T04:34:58.468Z,0
2018-12-08T04:40:02.163Z,0
2018-12-08T04:44:57.861Z,0
2018-12-08T04:49:58.546Z,0
2018-12-08T04:54:58.651Z,0
2018-12-08T04:59:58.450Z,0
2018-12-08T05:04:59.105Z,0
2018-12-08T05:09:58.474Z,0
2018-12-08T05:14:58.448Z,0
2018-12-08T05:19:57.883Z,0
2018-12-08T05:24:58.854Z,0
2018-12-08T05:29:58.485Z,0
2018-12-08T05:34:58.973Z,0
2018-12-08T05:39:57.859Z,0
2018-12-08T05:44:57.802Z,0
2018-12-08T05:49:58.196Z,0
2018-12-08T05:54:57.573Z,0
2018-12-08T06:00:00.320Z,0
2018-12-08T06:04:58.077Z,0
2018-12-08T06:09:58.299Z,0
2018-12-08T06:15:00.139Z,0
2018-12-08T06:19:58.063Z,0
2018-12-08T06:24:58.061Z,0
2018-12-08T06:29:57.882Z,0
2018-12-08T06:34:57.541Z,0
2018-12-08T06:39:57.653Z,0
2018-12-08T06:44:57.736Z,0
2018-12-08T06:49:58.445Z,0
2018-12-08T06:54:57.978Z,0
2018-12-08T06:59:58.000Z,0
2018-12-08T07:04:57.460Z,0
2018-12-08T07:09:57.945Z,0
2018-12-08T07:14:57.685Z,0
2018-12-08T07:19:57.610Z,0
2018-12-08T07:24:57.576Z,0
2018-12-08T07:29:58.044Z,0
2018-12-08T07:34:57.388Z,0
2018-12-08T07:39:57.679Z,0
2018-12-08T07:44:57.472Z,0
2018-12-08T07:49:58.025Z,0
2018-12-08T07:54:57.503Z,0.8
2018-12-08T07:59:57.807Z,0
2018-12-08T08:04:57.378Z,0.8
2018-12-08T08:10:00.828Z,1.7
2018-12-08T08:14:57.315Z,1.7
2018-12-08T08:19:57.441Z,4.2
2018-12-08T08:24:57.513Z,6.7
2018-12-08T08:29:57.515Z,2.5
2018-12-08T08:34:57.821Z,6.7
2018-12-08T08:39:58.025Z,5
2018-12-08T08:44:57.427Z,5
2018-12-08T08:49:57.721Z,5.8
2018-12-08T08:54:57.431Z,12.5
2018-12-08T08:59:57.541Z,7.5
2018-12-08T09:04:58.267Z,8.3
2018-12-08T09:09:57.259Z,8.3
2018-12-08T09:14:57.583Z,11.7
2018-12-08T09:19:57.851Z,15
2018-12-08T09:24:57.390Z,15
2018-12-08T09:29:57.886Z,22.5
2018-12-08T09:34:57.088Z,15
2018-12-08T09:39:57.560Z,17.5
2018-12-08T09:44:57.765Z,17.5
2018-12-08T09:49:57.266Z,24.2
2018-12-08T09:54:57.549Z,23.3
2018-12-08T09:59:57.759Z,28.3
2018-12-08T10:04:57.532Z,28.3
2018-12-08T10:09:59.334Z,32.5
2018-12-08T10:14:57.286Z,28.3
2018-12-08T10:19:57.963Z,24.2
2018-12-08T10:24:57.571Z,25
2018-12-08T10:29:57.392Z,26.7
2018-12-08T10:34:57.288Z,30.8
2018-12-08T10:39:57.468Z,24.2
2018-12-08T10:44:57.409Z,30.8
2018-12-08T10:49:57.351Z,26.7
2018-12-08T10:54:57.349Z,25.8
2018-12-08T10:59:58.331Z,30
2018-12-08T11:04:57.285Z,40
2018-12-08T11:09:59.982Z,24.2
2018-12-08T11:15:00.755Z,24.2
2018-12-08T11:19:57.480Z,16.7
2018-12-08T11:24:57.448Z,22.5
2018-12-08T11:29:57.904Z,26.7
2018-12-08T11:34:56.983Z,26.7
2018-12-08T11:39:57.291Z,25.8
2018-12-08T11:44:57.268Z,28.3
2018-12-08T11:49:57.817Z,37.5
2018-12-08T11:54:58.978Z,35
2018-12-08T11:59:57.869Z,30
2018-12-08T12:04:57.735Z,27.5
2018-12-08T12:09:58.308Z,28.3
2018-12-08T12:14:57.422Z,29.2
2018-12-08T12:19:58.225Z,22.5
2018-12-08T12:25:01.523Z,23.3
2018-12-08T12:29:57.967Z,17.5
2018-12-08T12:34:58.456Z,15.8
2018-12-08T12:39:57.271Z,24.2
2018-12-08T12:44:58.079Z,17.5
2018-12-08T12:49:57.399Z,19.2
2018-12-08T12:54:56.967Z,25.8
2018-12-08T12:59:57.577Z,20.8
2018-12-08T13:04:57.114Z,30
2018-12-08T13:09:57.996Z,27.5
2018-12-08T13:14:57.258Z,18.3
2018-12-08T13:19:57.287Z,15.8
2018-12-08T13:24:57.188Z,19.2
2018-12-08T13:29:57.245Z,21.7
2018-12-08T13:34:57.681Z,15.8
2018-12-08T13:39:57.240Z,31.7
2018-12-08T13:44:58.281Z,21.7
2018-12-08T13:49:57.032Z,30.8
2018-12-08T13:54:57.095Z,19.2
2018-12-08T13:59:57.346Z,18.3
2018-12-08T14:04:56.899Z,30
2018-12-08T14:09:57.357Z,24.2
2018-12-08T14:14:56.750Z,16.7
2018-12-08T14:19:56.941Z,15.8
2018-12-08T14:25:02.138Z,17.5
2018-12-08T14:29:56.789Z,9.2
2018-12-08T14:34:56.872Z,8.3
2018-12-08T14:39:56.904Z,9.2
2018-12-08T14:44:56.805Z,5.8
2018-12-08T14:49:57.276Z,3.3
2018-12-08T14:54:56.946Z,3.3
2018-12-08T14:59:57.106Z,4.2
2018-12-08T15:04:57.020Z,4.2
2018-12-08T15:09:56.652Z,1.7
2018-12-08T15:14:56.877Z,1.7
2018-12-08T15:19:56.929Z,1.7
2018-12-08T15:24:56.906Z,0.8
2018-12-08T15:29:57.172Z,0
2018-12-08T15:34:56.691Z,0
2018-12-08T15:39:56.916Z,0
2018-12-08T15:44:56.641Z,0
2018-12-08T15:49:57.171Z,0
2018-12-08T15:54:56.897Z,0
2018-12-08T15:59:57.047Z,0
2018-12-08T16:04:56.778Z,0
2018-12-08T16:09:56.853Z,0
2018-12-08T16:14:56.711Z,0
2018-12-08T16:19:56.900Z,0
2018-12-08T16:24:56.662Z,0
2018-12-08T16:29:56.777Z,0
2018-12-08T16:34:56.786Z,0
2018-12-08T16:39:57.058Z,0
2018-12-08T16:44:57.023Z,0
2018-12-08T16:49:56.723Z,0
2018-12-08T16:54:56.977Z,0
2018-12-08T16:59:57.720Z,0
2018-12-08T17:04:56.877Z,0
2018-12-08T17:09:57.104Z,0
2018-12-08T17:14:57.871Z,0
2018-12-08T17:19:56.831Z,0
2018-12-08T17:24:56.856Z,0
2018-12-08T17:29:56.872Z,0
2018-12-08T17:34:56.711Z,0
2018-12-08T17:39:57.452Z,0
2018-12-08T17:44:56.431Z,0
2018-12-08T17:49:56.526Z,0
2018-12-08T17:54:56.592Z,0
2018-12-08T17:59:56.790Z,0
2018-12-08T18:04:56.418Z,0
2018-12-08T18:09:56.913Z,0
2018-12-08T18:14:56.876Z,0
2018-12-08T18:19:56.829Z,0
2018-12-08T18:24:56.694Z,0
2018-12-08T18:29:56.832Z,0
2018-12-08T18:34:56.714Z,0
2018-12-08T18:39:56.471Z,0
2018-12-08T18:44:56.717Z,0
2018-12-08T18:49:56.947Z,0
2018-12-08T18:54:56.372Z,0
2018-12-08T18:59:56.982Z,0
2018-12-08T19:04:56.561Z,0
2018-12-08T19:09:56.598Z,0
2018-12-08T19:14:56.688Z,0
2018-12-08T19:19:56.991Z,0
2018-12-08T19:24:56.459Z,0
2018-12-08T19:29:56.634Z,0
2018-12-08T19:34:56.415Z,0
2018-12-08T19:39:56.671Z,0
2018-12-08T19:44:56.548Z,0
2018-12-08T19:49:56.743Z,0
2018-12-08T19:54:57.412Z,0
2018-12-08T19:59:58.977Z,0
2018-12-08T20:04:56.860Z,0
2018-12-08T20:09:58.201Z,0
2018-12-08T20:14:59.600Z,0
2018-12-08T20:19:57.875Z,0
2018-12-08T20:24:56.408Z,0
2018-12-08T20:29:57.856Z,0
2018-12-08T20:34:57.440Z,0
2018-12-08T20:39:57.835Z,0
2018-12-08T20:44:57.849Z,0
2018-12-08T20:50:02.006Z,0
2018-12-08T20:55:00.376Z,0
2018-12-08T20:59:56.984Z,0
2018-12-08T21:04:56.655Z,0
2018-12-08T21:09:57.002Z,0
2018-12-08T21:14:56.536Z,0
2018-12-08T21:19:56.696Z,0
2018-12-08T21:24:56.473Z,0
2018-12-08T21:29:57.565Z,0
2018-12-08T21:34:56.826Z,0
2018-12-08T21:39:56.978Z,0
2018-12-08T21:44:56.618Z,0
2018-12-08T21:49:56.860Z,0
2018-12-08T21:54:56.624Z,0
2018-12-08T21:59:57.195Z,0
2018-12-08T22:05:05.195Z,0
2018-12-08T22:09:56.899Z,0
2018-12-08T22:14:56.788Z,0
2018-12-08T22:19:56.973Z,0
2018-12-08T22:24:56.338Z,0
2018-12-08T22:29:56.797Z,0
2018-12-08T22:34:56.596Z,0
2018-12-08T22:39:56.619Z,0
2018-12-08T22:44:56.529Z,0
2018-12-08T22:49:56.496Z,0
2018-12-08T22:54:56.557Z,0
2018-12-08T22:59:59.799Z,0
2018-12-08T23:04:59.324Z,0
2018-12-08T23:09:56.407Z,0
2018-12-08T23:14:56.439Z,0
2018-12-08T23:19:57.119Z,0
2018-12-08T23:24:56.317Z,0
2018-12-08T23:29:56.367Z,0
2018-12-08T23:34:56.395Z,0
2018-12-08T23:39:56.577Z,0
2018-12-08T23:44:56.482Z,0
2018-12-08T23:49:56.627Z,0
2018-12-08T23:54:57.400Z,0
2018-12-08T23:59:56.686Z,0
